sensor_id;sensor_type;location;lat;lon;timestamp;P1;durP1;ratioP1;P2;durP2;ratioP2
5499;SDS011;2772;42.700;23.304;2023-04-01T00:01:01;34.87;;;18.97;;
5499;SDS011;2772;42.700;23.304;2023-04-01T00:03:29;45.67;;;19.63;;
5499;SDS011;2772;42.700;23.304;2023-04-01T00:05:58;42.60;;;19.77;;
5499;SDS011;2772;42.700;23.304;2023-04-01T00:08:26;35.70;;;18.77;;
5499;SDS011;2772;42.700;23.304;2023-04-01T00:10:55;36.33;;;17.20;;
5499;SDS011;2772;42.700;23.304;2023-04-01T00:13:22;34.70;;;17.47;;
5499;SDS011;2772;42.700;23.304;2023-04-01T00:15:50;32.93;;;16.07;;
5499;SDS011;2772;42.700;23.304;2023-04-01T00:18:17;30.33;;;15.50;;
5499;SDS011;2772;42.700;23.304;2023-04-01T00:20:44;34.43;;;15.93;;
5499;SDS011;2772;42.700;23.304;2023-04-01T00:23:12;33.47;;;16.30;;
5499;SDS011;2772;42.700;23.304;2023-04-01T00:25:39;36.47;;;17.10;;
5499;SDS011;2772;42.700;23.304;2023-04-01T00:28:07;32.67;;;16.07;;
5499;SDS011;2772;42.700;23.304;2023-04-01T00:30:35;30.93;;;15.90;;
5499;SDS011;2772;42.700;23.304;2023-04-01T00:33:02;29.43;;;15.00;;
5499;SDS011;2772;42.700;23.304;2023-04-01T00:35:28;27.27;;;14.97;;
5499;SDS011;2772;42.700;23.304;2023-04-01T00:37:55;32.57;;;15.23;;
5499;SDS011;2772;42.700;23.304;2023-04-01T00:40:23;25.87;;;14.03;;
5499;SDS011;2772;42.700;23.304;2023-04-01T00:42:53;30.23;;;13.77;;
5499;SDS011;2772;42.700;23.304;2023-04-01T00:45:26;30.90;;;14.40;;
5499;SDS011;2772;42.700;23.304;2023-04-01T00:47:59;24.57;;;13.63;;
5499;SDS011;2772;42.700;23.304;2023-04-01T00:50:30;26.50;;;14.00;;
5499;SDS011;2772;42.700;23.304;2023-04-01T00:52:58;21.63;;;12.63;;
5499;SDS011;2772;42.700;23.304;2023-04-01T00:55:27;23.07;;;13.17;;
5499;SDS011;2772;42.700;23.304;2023-04-01T00:57:57;23.53;;;12.47;;
5499;SDS011;2772;42.700;23.304;2023-04-01T01:00:27;25.73;;;13.77;;
5499;SDS011;2772;42.700;23.304;2023-04-01T01:02:54;22.77;;;11.97;;
5499;SDS011;2772;42.700;23.304;2023-04-01T01:05:23;24.27;;;12.80;;
5499;SDS011;2772;42.700;23.304;2023-04-01T01:08:01;27.63;;;12.40;;
5499;SDS011;2772;42.700;23.304;2023-04-01T01:10:33;19.07;;;11.77;;
5499;SDS011;2772;42.700;23.304;2023-04-01T01:13:07;24.60;;;12.90;;
5499;SDS011;2772;42.700;23.304;2023-04-01T01:15:41;21.60;;;12.23;;
5499;SDS011;2772;42.700;23.304;2023-04-01T01:18:14;26.63;;;12.97;;
5499;SDS011;2772;42.700;23.304;2023-04-01T01:21:07;25.47;;;12.97;;
5499;SDS011;2772;42.700;23.304;2023-04-01T01:24:07;39.80;;;13.33;;
5499;SDS011;2772;42.700;23.304;2023-04-01T01:26:53;26.30;;;12.90;;
5499;SDS011;2772;42.700;23.304;2023-04-01T01:32:32;30.73;;;12.87;;
5499;SDS011;2772;42.700;23.304;2023-04-01T01:35:20;20.87;;;12.13;;
5499;SDS011;2772;42.700;23.304;2023-04-01T01:37:51;23.57;;;12.13;;
5499;SDS011;2772;42.700;23.304;2023-04-01T01:40:22;24.00;;;11.50;;
5499;SDS011;2772;42.700;23.304;2023-04-01T01:42:52;20.30;;;11.50;;
5499;SDS011;2772;42.700;23.304;2023-04-01T01:45:23;17.03;;;10.90;;
5499;SDS011;2772;42.700;23.304;2023-04-01T01:47:51;27.30;;;10.80;;
5499;SDS011;2772;42.700;23.304;2023-04-01T01:50:20;19.07;;;9.93;;
5499;SDS011;2772;42.700;23.304;2023-04-01T01:52:49;20.10;;;11.13;;
5499;SDS011;2772;42.700;23.304;2023-04-01T01:55:23;20.27;;;10.63;;
5499;SDS011;2772;42.700;23.304;2023-04-01T01:57:52;12.40;;;9.63;;
5499;SDS011;2772;42.700;23.304;2023-04-01T02:00:22;22.00;;;10.00;;
5499;SDS011;2772;42.700;23.304;2023-04-01T02:02:49;19.00;;;9.97;;
5499;SDS011;2772;42.700;23.304;2023-04-01T02:05:17;22.17;;;9.70;;
5499;SDS011;2772;42.700;23.304;2023-04-01T02:07:50;15.53;;;9.57;;
5499;SDS011;2772;42.700;23.304;2023-04-01T02:10:22;15.20;;;8.57;;
5499;SDS011;2772;42.700;23.304;2023-04-01T02:12:51;21.20;;;8.93;;
5499;SDS011;2772;42.700;23.304;2023-04-01T02:15:23;15.60;;;9.13;;
5499;SDS011;2772;42.700;23.304;2023-04-01T02:17:55;23.83;;;9.60;;
5499;SDS011;2772;42.700;23.304;2023-04-01T02:20:24;17.23;;;9.23;;
5499;SDS011;2772;42.700;23.304;2023-04-01T02:22:54;15.27;;;8.80;;
5499;SDS011;2772;42.700;23.304;2023-04-01T02:25:25;15.33;;;9.13;;
5499;SDS011;2772;42.700;23.304;2023-04-01T02:27:54;20.20;;;9.60;;
5499;SDS011;2772;42.700;23.304;2023-04-01T02:30:23;13.77;;;10.07;;
5499;SDS011;2772;42.700;23.304;2023-04-01T02:32:51;18.30;;;10.30;;
5499;SDS011;2772;42.700;23.304;2023-04-01T02:35:19;17.17;;;9.70;;
5499;SDS011;2772;42.700;23.304;2023-04-01T02:37:48;13.77;;;9.70;;
5499;SDS011;2772;42.700;23.304;2023-04-01T02:40:16;25.80;;;10.67;;
5499;SDS011;2772;42.700;23.304;2023-04-01T02:42:43;17.70;;;10.20;;
5499;SDS011;2772;42.700;23.304;2023-04-01T02:45:11;18.07;;;10.30;;
5499;SDS011;2772;42.700;23.304;2023-04-01T02:47:39;22.70;;;10.67;;
5499;SDS011;2772;42.700;23.304;2023-04-01T02:50:06;16.03;;;9.50;;
5499;SDS011;2772;42.700;23.304;2023-04-01T02:52:34;20.47;;;10.90;;
5499;SDS011;2772;42.700;23.304;2023-04-01T02:55:02;22.13;;;10.67;;
5499;SDS011;2772;42.700;23.304;2023-04-01T02:57:30;15.00;;;10.07;;
5499;SDS011;2772;42.700;23.304;2023-04-01T02:59:56;23.30;;;11.20;;
5499;SDS011;2772;42.700;23.304;2023-04-01T03:02:23;18.60;;;10.67;;
5499;SDS011;2772;42.700;23.304;2023-04-01T03:04:50;16.10;;;10.40;;
5499;SDS011;2772;42.700;23.304;2023-04-01T03:07:16;22.30;;;11.40;;
5499;SDS011;2772;42.700;23.304;2023-04-01T03:09:43;19.40;;;11.50;;
5499;SDS011;2772;42.700;23.304;2023-04-01T03:12:12;24.27;;;12.10;;
5499;SDS011;2772;42.700;23.304;2023-04-01T03:14:38;22.00;;;11.70;;
5499;SDS011;2772;42.700;23.304;2023-04-01T03:17:05;24.00;;;12.60;;
5499;SDS011;2772;42.700;23.304;2023-04-01T03:19:32;25.77;;;13.47;;
5499;SDS011;2772;42.700;23.304;2023-04-01T03:21:59;29.33;;;13.07;;
5499;SDS011;2772;42.700;23.304;2023-04-01T03:24:25;24.63;;;13.47;;
5499;SDS011;2772;42.700;23.304;2023-04-01T03:26:52;23.40;;;13.67;;
5499;SDS011;2772;42.700;23.304;2023-04-01T03:29:20;26.00;;;13.43;;
5499;SDS011;2772;42.700;23.304;2023-04-01T03:31:46;26.70;;;15.00;;
5499;SDS011;2772;42.700;23.304;2023-04-01T03:34:13;30.97;;;14.20;;
5499;SDS011;2772;42.700;23.304;2023-04-01T03:36:40;20.60;;;13.07;;
5499;SDS011;2772;42.700;23.304;2023-04-01T03:39:06;27.30;;;14.33;;
5499;SDS011;2772;42.700;23.304;2023-04-01T03:41:35;21.40;;;13.30;;
5499;SDS011;2772;42.700;23.304;2023-04-01T03:44:02;19.00;;;12.30;;
5499;SDS011;2772;42.700;23.304;2023-04-01T03:46:30;23.90;;;13.30;;
5499;SDS011;2772;42.700;23.304;2023-04-01T03:48:57;21.33;;;12.57;;
5499;SDS011;2772;42.700;23.304;2023-04-01T03:51:24;38.03;;;12.97;;
5499;SDS011;2772;42.700;23.304;2023-04-01T03:53:50;22.90;;;12.53;;
5499;SDS011;2772;42.700;23.304;2023-04-01T03:56:17;23.13;;;12.10;;
5499;SDS011;2772;42.700;23.304;2023-04-01T03:58:44;25.57;;;11.97;;
5499;SDS011;2772;42.700;23.304;2023-04-01T04:01:14;28.50;;;14.63;;
5499;SDS011;2772;42.700;23.304;2023-04-01T04:03:44;33.70;;;16.80;;
5499;SDS011;2772;42.700;23.304;2023-04-01T04:06:11;39.37;;;16.40;;
5499;SDS011;2772;42.700;23.304;2023-04-01T04:08:38;32.37;;;17.37;;
5499;SDS011;2772;42.700;23.304;2023-04-01T04:11:05;51.90;;;24.00;;
5499;SDS011;2772;42.700;23.304;2023-04-01T04:13:32;47.90;;;22.57;;
5499;SDS011;2772;42.700;23.304;2023-04-01T04:15:59;28.63;;;14.40;;
5499;SDS011;2772;42.700;23.304;2023-04-01T04:18:26;35.00;;;15.70;;
5499;SDS011;2772;42.700;23.304;2023-04-01T04:20:54;28.70;;;14.47;;
5499;SDS011;2772;42.700;23.304;2023-04-01T04:23:21;21.83;;;11.63;;
5499;SDS011;2772;42.700;23.304;2023-04-01T04:25:54;21.50;;;13.37;;
5499;SDS011;2772;42.700;23.304;2023-04-01T04:28:23;28.77;;;12.30;;
5499;SDS011;2772;42.700;23.304;2023-04-01T04:30:50;20.50;;;12.07;;
5499;SDS011;2772;42.700;23.304;2023-04-01T04:33:17;27.37;;;11.50;;
5499;SDS011;2772;42.700;23.304;2023-04-01T04:35:44;16.73;;;10.83;;
5499;SDS011;2772;42.700;23.304;2023-04-01T04:38:12;19.50;;;11.50;;
5499;SDS011;2772;42.700;23.304;2023-04-01T04:40:39;19.83;;;10.40;;
5499;SDS011;2772;42.700;23.304;2023-04-01T04:43:07;21.83;;;11.13;;
5499;SDS011;2772;42.700;23.304;2023-04-01T04:45:36;19.30;;;10.37;;
5499;SDS011;2772;42.700;23.304;2023-04-01T04:48:03;33.53;;;12.37;;
5499;SDS011;2772;42.700;23.304;2023-04-01T04:50:30;30.33;;;12.80;;
5499;SDS011;2772;42.700;23.304;2023-04-01T04:52:57;21.80;;;11.17;;
5499;SDS011;2772;42.700;23.304;2023-04-01T04:55:25;22.15;;;12.10;;
5499;SDS011;2772;42.700;23.304;2023-04-01T04:57:52;33.53;;;10.60;;
5499;SDS011;2772;42.700;23.304;2023-04-01T05:00:18;27.37;;;11.80;;
5499;SDS011;2772;42.700;23.304;2023-04-01T05:02:45;44.73;;;11.60;;
5499;SDS011;2772;42.700;23.304;2023-04-01T05:05:12;29.13;;;12.00;;
5499;SDS011;2772;42.700;23.304;2023-04-01T05:07:39;41.57;;;12.50;;
5499;SDS011;2772;42.700;23.304;2023-04-01T05:10:06;30.73;;;13.03;;
5499;SDS011;2772;42.700;23.304;2023-04-01T05:12:34;28.63;;;12.33;;
5499;SDS011;2772;42.700;23.304;2023-04-01T05:15:02;29.07;;;11.30;;
5499;SDS011;2772;42.700;23.304;2023-04-01T05:17:30;23.90;;;10.03;;
5499;SDS011;2772;42.700;23.304;2023-04-01T05:19:56;17.17;;;10.47;;
5499;SDS011;2772;42.700;23.304;2023-04-01T05:22:23;30.90;;;13.03;;
5499;SDS011;2772;42.700;23.304;2023-04-01T05:24:50;24.33;;;11.73;;
5499;SDS011;2772;42.700;23.304;2023-04-01T05:27:17;25.07;;;10.60;;
5499;SDS011;2772;42.700;23.304;2023-04-01T05:29:45;21.73;;;10.73;;
5499;SDS011;2772;42.700;23.304;2023-04-01T05:32:11;24.27;;;10.70;;
5499;SDS011;2772;42.700;23.304;2023-04-01T05:34:38;29.03;;;12.10;;
5499;SDS011;2772;42.700;23.304;2023-04-01T05:37:05;20.10;;;9.77;;
5499;SDS011;2772;42.700;23.304;2023-04-01T05:39:35;21.23;;;9.37;;
5499;SDS011;2772;42.700;23.304;2023-04-01T05:42:02;28.30;;;9.50;;
5499;SDS011;2772;42.700;23.304;2023-04-01T05:44:29;16.17;;;7.33;;
5499;SDS011;2772;42.700;23.304;2023-04-01T05:46:57;22.10;;;8.40;;
5499;SDS011;2772;42.700;23.304;2023-04-01T05:49:24;17.93;;;7.30;;
5499;SDS011;2772;42.700;23.304;2023-04-01T05:51:51;22.73;;;7.50;;
5499;SDS011;2772;42.700;23.304;2023-04-01T05:54:18;20.37;;;8.37;;
5499;SDS011;2772;42.700;23.304;2023-04-01T05:56:44;12.87;;;6.93;;
5499;SDS011;2772;42.700;23.304;2023-04-01T05:59:11;19.40;;;7.20;;
5499;SDS011;2772;42.700;23.304;2023-04-01T06:01:39;13.57;;;6.93;;
5499;SDS011;2772;42.700;23.304;2023-04-01T06:04:09;9.93;;;6.43;;
5499;SDS011;2772;42.700;23.304;2023-04-01T06:06:39;15.97;;;6.57;;
5499;SDS011;2772;42.700;23.304;2023-04-01T06:09:10;11.13;;;5.93;;
5499;SDS011;2772;42.700;23.304;2023-04-01T06:11:42;10.43;;;6.70;;
5499;SDS011;2772;42.700;23.304;2023-04-01T06:14:23;13.10;;;6.80;;
5499;SDS011;2772;42.700;23.304;2023-04-01T06:17:02;9.83;;;6.40;;
5499;SDS011;2772;42.700;23.304;2023-04-01T06:19:44;10.70;;;6.37;;
5499;SDS011;2772;42.700;23.304;2023-04-01T06:28:05;11.00;;;5.90;;
5499;SDS011;2772;42.700;23.304;2023-04-01T06:30:47;18.77;;;6.67;;
5499;SDS011;2772;42.700;23.304;2023-04-01T06:33:26;20.20;;;6.00;;
5499;SDS011;2772;42.700;23.304;2023-04-01T06:39:11;9.27;;;5.60;;
5499;SDS011;2772;42.700;23.304;2023-04-01T06:42:06;12.10;;;5.67;;
5499;SDS011;2772;42.700;23.304;2023-04-01T06:44:54;10.20;;;5.90;;
5499;SDS011;2772;42.700;23.304;2023-04-01T06:47:33;11.63;;;5.57;;
5499;SDS011;2772;42.700;23.304;2023-04-01T06:50:12;9.83;;;5.60;;
5499;SDS011;2772;42.700;23.304;2023-04-01T06:52:50;9.30;;;5.47;;
5499;SDS011;2772;42.700;23.304;2023-04-01T06:55:26;11.43;;;5.10;;
5499;SDS011;2772;42.700;23.304;2023-04-01T06:57:58;10.60;;;5.60;;
5499;SDS011;2772;42.700;23.304;2023-04-01T07:00:29;9.70;;;7.30;;
5499;SDS011;2772;42.700;23.304;2023-04-01T07:03:01;10.17;;;5.93;;
5499;SDS011;2772;42.700;23.304;2023-04-01T07:05:36;11.10;;;7.33;;
5499;SDS011;2772;42.700;23.304;2023-04-01T07:08:08;10.10;;;5.70;;
5499;SDS011;2772;42.700;23.304;2023-04-01T07:10:41;13.17;;;6.07;;
5499;SDS011;2772;42.700;23.304;2023-04-01T07:13:13;6.37;;;5.10;;
5499;SDS011;2772;42.700;23.304;2023-04-01T07:15:54;18.73;;;6.40;;
5499;SDS011;2772;42.700;23.304;2023-04-01T07:18:28;12.30;;;7.17;;
5499;SDS011;2772;42.700;23.304;2023-04-01T07:21:00;10.50;;;6.40;;
5499;SDS011;2772;42.700;23.304;2023-04-01T07:23:31;18.80;;;6.90;;
5499;SDS011;2772;42.700;23.304;2023-04-01T07:26:04;11.27;;;6.33;;
5499;SDS011;2772;42.700;23.304;2023-04-01T07:28:37;9.03;;;5.90;;
5499;SDS011;2772;42.700;23.304;2023-04-01T07:31:07;8.67;;;5.70;;
5499;SDS011;2772;42.700;23.304;2023-04-01T07:33:43;11.40;;;6.10;;
5499;SDS011;2772;42.700;23.304;2023-04-01T07:36:17;13.80;;;6.73;;
5499;SDS011;2772;42.700;23.304;2023-04-01T07:38:56;11.90;;;5.97;;
5499;SDS011;2772;42.700;23.304;2023-04-01T07:41:32;12.67;;;6.60;;
5499;SDS011;2772;42.700;23.304;2023-04-01T07:44:10;16.42;;;8.27;;
5499;SDS011;2772;42.700;23.304;2023-04-01T07:46:46;14.60;;;8.53;;
5499;SDS011;2772;42.700;23.304;2023-04-01T07:49:22;16.43;;;8.20;;
5499;SDS011;2772;42.700;23.304;2023-04-01T07:51:56;19.13;;;9.47;;
5499;SDS011;2772;42.700;23.304;2023-04-01T07:54:29;25.90;;;13.07;;
5499;SDS011;2772;42.700;23.304;2023-04-01T07:57:05;16.30;;;6.23;;
5499;SDS011;2772;42.700;23.304;2023-04-01T07:59:40;10.40;;;6.50;;
5499;SDS011;2772;42.700;23.304;2023-04-01T08:02:21;11.50;;;6.33;;
5499;SDS011;2772;42.700;23.304;2023-04-01T08:04:59;15.37;;;7.60;;
5499;SDS011;2772;42.700;23.304;2023-04-01T08:07:35;10.10;;;6.20;;
5499;SDS011;2772;42.700;23.304;2023-04-01T08:10:10;19.43;;;7.20;;
5499;SDS011;2772;42.700;23.304;2023-04-01T08:12:46;16.87;;;6.53;;
5499;SDS011;2772;42.700;23.304;2023-04-01T08:15:19;9.47;;;7.57;;
5499;SDS011;2772;42.700;23.304;2023-04-01T08:17:54;9.90;;;6.30;;
5499;SDS011;2772;42.700;23.304;2023-04-01T08:20:32;13.10;;;7.17;;
5499;SDS011;2772;42.700;23.304;2023-04-01T08:23:05;11.03;;;6.57;;
5499;SDS011;2772;42.700;23.304;2023-04-01T08:25:39;12.67;;;7.40;;
5499;SDS011;2772;42.700;23.304;2023-04-01T08:28:13;12.80;;;7.50;;
5499;SDS011;2772;42.700;23.304;2023-04-01T08:30:47;8.67;;;6.43;;
5499;SDS011;2772;42.700;23.304;2023-04-01T08:33:19;12.20;;;6.50;;
5499;SDS011;2772;42.700;23.304;2023-04-01T08:35:51;21.03;;;7.57;;
5499;SDS011;2772;42.700;23.304;2023-04-01T08:38:23;15.32;;;6.80;;
5499;SDS011;2772;42.700;23.304;2023-04-01T08:40:57;15.33;;;7.63;;
5499;SDS011;2772;42.700;23.304;2023-04-01T08:43:29;36.33;;;16.00;;
5499;SDS011;2772;42.700;23.304;2023-04-01T08:49:10;11.30;;;5.90;;
5499;SDS011;2772;42.700;23.304;2023-04-01T08:55:04;8.77;;;5.67;;
5499;SDS011;2772;42.700;23.304;2023-04-01T08:58:21;6.60;;;5.33;;
5499;SDS011;2772;42.700;23.304;2023-04-01T09:01:03;7.63;;;4.93;;
5499;SDS011;2772;42.700;23.304;2023-04-01T09:03:51;14.60;;;4.57;;
5499;SDS011;2772;42.700;23.304;2023-04-01T09:06:33;5.03;;;3.70;;
5499;SDS011;2772;42.700;23.304;2023-04-01T09:09:16;7.93;;;4.70;;
5499;SDS011;2772;42.700;23.304;2023-04-01T09:12:08;6.27;;;4.10;;
5499;SDS011;2772;42.700;23.304;2023-04-01T09:18:38;6.07;;;3.80;;
5499;SDS011;2772;42.700;23.304;2023-04-01T09:21:32;10.50;;;4.50;;
5499;SDS011;2772;42.700;23.304;2023-04-01T09:24:14;13.53;;;3.90;;
5499;SDS011;2772;42.700;23.304;2023-04-01T09:26:57;6.43;;;4.27;;
5499;SDS011;2772;42.700;23.304;2023-04-01T09:29:38;10.13;;;4.13;;
5499;SDS011;2772;42.700;23.304;2023-04-01T09:32:34;6.13;;;4.03;;
5499;SDS011;2772;42.700;23.304;2023-04-01T09:35:20;6.10;;;4.73;;
5499;SDS011;2772;42.700;23.304;2023-04-01T09:37:53;10.33;;;3.70;;
5499;SDS011;2772;42.700;23.304;2023-04-01T09:40:31;10.00;;;3.73;;
5499;SDS011;2772;42.700;23.304;2023-04-01T09:43:27;8.53;;;4.03;;
5499;SDS011;2772;42.700;23.304;2023-04-01T09:46:10;12.67;;;4.80;;
5499;SDS011;2772;42.700;23.304;2023-04-01T09:48:49;10.83;;;3.80;;
5499;SDS011;2772;42.700;23.304;2023-04-01T09:51:46;16.90;;;8.53;;
5499;SDS011;2772;42.700;23.304;2023-04-01T09:54:28;15.80;;;5.20;;
5499;SDS011;2772;42.700;23.304;2023-04-01T10:03:18;8.97;;;3.30;;
5499;SDS011;2772;42.700;23.304;2023-04-01T10:06:28;4.57;;;3.30;;
5499;SDS011;2772;42.700;23.304;2023-04-01T10:18:35;9.50;;;3.70;;
5499;SDS011;2772;42.700;23.304;2023-04-01T10:21:20;8.50;;;4.37;;
5499;SDS011;2772;42.700;23.304;2023-04-01T10:29:47;8.40;;;3.87;;
5499;SDS011;2772;42.700;23.304;2023-04-01T10:35:45;18.57;;;6.77;;
5499;SDS011;2772;42.700;23.304;2023-04-01T10:38:42;11.73;;;4.90;;
5499;SDS011;2772;42.700;23.304;2023-04-01T10:44:45;8.70;;;4.50;;
5499;SDS011;2772;42.700;23.304;2023-04-01T10:50:51;8.73;;;4.33;;
5499;SDS011;2772;42.700;23.304;2023-04-01T10:53:32;10.07;;;5.93;;
5499;SDS011;2772;42.700;23.304;2023-04-01T10:59:14;8.43;;;5.30;;
5499;SDS011;2772;42.700;23.304;2023-04-01T11:02:02;12.43;;;4.87;;
5499;SDS011;2772;42.700;23.304;2023-04-01T11:05:07;8.90;;;5.27;;
5499;SDS011;2772;42.700;23.304;2023-04-01T11:20:57;13.20;;;5.57;;
5499;SDS011;2772;42.700;23.304;2023-04-01T11:23:54;8.17;;;5.20;;
5499;SDS011;2772;42.700;23.304;2023-04-01T11:26:33;21.20;;;11.70;;
5499;SDS011;2772;42.700;23.304;2023-04-01T11:29:23;9.10;;;5.33;;
5499;SDS011;2772;42.700;23.304;2023-04-01T11:32:07;11.43;;;6.50;;
5499;SDS011;2772;42.700;23.304;2023-04-01T11:34:53;10.30;;;6.50;;
5499;SDS011;2772;42.700;23.304;2023-04-01T11:37:31;5.77;;;3.30;;
5499;SDS011;2772;42.700;23.304;2023-04-01T11:40:11;9.80;;;3.60;;
5499;SDS011;2772;42.700;23.304;2023-04-01T11:42:45;6.70;;;2.80;;
5499;SDS011;2772;42.700;23.304;2023-04-01T11:45:20;12.63;;;3.47;;
5499;SDS011;2772;42.700;23.304;2023-04-01T11:48:03;11.10;;;3.80;;
5499;SDS011;2772;42.700;23.304;2023-04-01T11:50:43;7.50;;;3.40;;
5499;SDS011;2772;42.700;23.304;2023-04-01T11:53:32;3.93;;;2.77;;
5499;SDS011;2772;42.700;23.304;2023-04-01T11:56:13;8.77;;;2.77;;
5499;SDS011;2772;42.700;23.304;2023-04-01T12:01:55;7.03;;;4.10;;
5499;SDS011;2772;42.700;23.304;2023-04-01T12:10:42;6.47;;;4.70;;
5499;SDS011;2772;42.700;23.304;2023-04-01T12:13:18;10.37;;;6.13;;
5499;SDS011;2772;42.700;23.304;2023-04-01T12:16:11;11.07;;;6.57;;
5499;SDS011;2772;42.700;23.304;2023-04-01T12:18:51;5.20;;;3.70;;
5499;SDS011;2772;42.700;23.304;2023-04-01T12:21:25;4.80;;;4.07;;
5499;SDS011;2772;42.700;23.304;2023-04-01T12:24:05;13.03;;;5.03;;
5499;SDS011;2772;42.700;23.304;2023-04-01T12:27:02;5.00;;;3.70;;
5499;SDS011;2772;42.700;23.304;2023-04-01T12:29:49;5.17;;;3.63;;
5499;SDS011;2772;42.700;23.304;2023-04-01T12:32:34;12.20;;;4.37;;
5499;SDS011;2772;42.700;23.304;2023-04-01T12:35:14;9.27;;;4.93;;
5499;SDS011;2772;42.700;23.304;2023-04-01T12:37:49;6.07;;;4.20;;
5499;SDS011;2772;42.700;23.304;2023-04-01T12:40:26;7.13;;;4.33;;
5499;SDS011;2772;42.700;23.304;2023-04-01T12:43:09;5.27;;;4.03;;
5499;SDS011;2772;42.700;23.304;2023-04-01T12:45:57;8.63;;;4.00;;
5499;SDS011;2772;42.700;23.304;2023-04-01T12:48:43;7.97;;;5.20;;
5499;SDS011;2772;42.700;23.304;2023-04-01T12:51:36;8.20;;;4.60;;
5499;SDS011;2772;42.700;23.304;2023-04-01T12:57:29;8.67;;;5.43;;
5499;SDS011;2772;42.700;23.304;2023-04-01T13:00:18;9.40;;;5.30;;
5499;SDS011;2772;42.700;23.304;2023-04-01T13:03:10;6.37;;;4.70;;
5499;SDS011;2772;42.700;23.304;2023-04-01T13:06:05;9.87;;;6.10;;
5499;SDS011;2772;42.700;23.304;2023-04-01T13:08:43;10.73;;;5.57;;
5499;SDS011;2772;42.700;23.304;2023-04-01T13:11:19;9.00;;;5.30;;
5499;SDS011;2772;42.700;23.304;2023-04-01T13:16:49;10.00;;;6.73;;
5499;SDS011;2772;42.700;23.304;2023-04-01T13:19:24;9.30;;;6.30;;
5499;SDS011;2772;42.700;23.304;2023-04-01T13:21:58;6.10;;;5.33;;
5499;SDS011;2772;42.700;23.304;2023-04-01T13:24:36;8.10;;;5.83;;
5499;SDS011;2772;42.700;23.304;2023-04-01T13:27:09;7.20;;;4.20;;
5499;SDS011;2772;42.700;23.304;2023-04-01T13:29:43;9.63;;;4.33;;
5499;SDS011;2772;42.700;23.304;2023-04-01T13:32:20;8.90;;;4.60;;
5499;SDS011;2772;42.700;23.304;2023-04-01T13:34:59;8.23;;;4.30;;
5499;SDS011;2772;42.700;23.304;2023-04-01T13:37:42;5.70;;;3.53;;
5499;SDS011;2772;42.700;23.304;2023-04-01T13:40:29;4.10;;;3.37;;
5499;SDS011;2772;42.700;23.304;2023-04-01T13:43:07;5.10;;;3.70;;
5499;SDS011;2772;42.700;23.304;2023-04-01T13:45:45;9.93;;;2.80;;
5499;SDS011;2772;42.700;23.304;2023-04-01T13:48:34;7.23;;;2.97;;
5499;SDS011;2772;42.700;23.304;2023-04-01T13:51:26;5.63;;;3.30;;
5499;SDS011;2772;42.700;23.304;2023-04-01T13:54:20;4.43;;;3.40;;
5499;SDS011;2772;42.700;23.304;2023-04-01T13:57:09;5.33;;;3.00;;
5499;SDS011;2772;42.700;23.304;2023-04-01T13:59:56;5.87;;;3.30;;
5499;SDS011;2772;42.700;23.304;2023-04-01T14:02:45;2.63;;;1.83;;
5499;SDS011;2772;42.700;23.304;2023-04-01T14:05:30;2.83;;;1.70;;
5499;SDS011;2772;42.700;23.304;2023-04-01T14:08:13;2.23;;;2.03;;
5499;SDS011;2772;42.700;23.304;2023-04-01T14:10:48;2.30;;;2.10;;
5499;SDS011;2772;42.700;23.304;2023-04-01T14:13:28;3.47;;;2.27;;
5499;SDS011;2772;42.700;23.304;2023-04-01T14:19:22;4.90;;;2.07;;
5499;SDS011;2772;42.700;23.304;2023-04-01T14:22:09;2.80;;;1.67;;
5499;SDS011;2772;42.700;23.304;2023-04-01T14:24:51;2.87;;;2.50;;
5499;SDS011;2772;42.700;23.304;2023-04-01T14:27:45;2.70;;;2.50;;
5499;SDS011;2772;42.700;23.304;2023-04-01T14:30:35;2.30;;;1.77;;
5499;SDS011;2772;42.700;23.304;2023-04-01T14:33:15;2.73;;;1.70;;
5499;SDS011;2772;42.700;23.304;2023-04-01T14:35:53;6.37;;;3.90;;
5499;SDS011;2772;42.700;23.304;2023-04-01T14:38:53;3.30;;;3.00;;
5499;SDS011;2772;42.700;23.304;2023-04-01T14:41:36;7.55;;;4.80;;
5499;SDS011;2772;42.700;23.304;2023-04-01T14:44:33;7.47;;;3.80;;
5499;SDS011;2772;42.700;23.304;2023-04-01T14:47:19;5.27;;;3.10;;
5499;SDS011;2772;42.700;23.304;2023-04-01T14:50:01;6.50;;;4.97;;
5499;SDS011;2772;42.700;23.304;2023-04-01T14:52:32;8.63;;;4.60;;
5499;SDS011;2772;42.700;23.304;2023-04-01T14:55:03;8.43;;;5.30;;
5499;SDS011;2772;42.700;23.304;2023-04-01T14:57:57;6.47;;;4.60;;
5499;SDS011;2772;42.700;23.304;2023-04-01T15:00:26;9.10;;;4.63;;
5499;SDS011;2772;42.700;23.304;2023-04-01T15:02:56;7.67;;;4.10;;
5499;SDS011;2772;42.700;23.304;2023-04-01T15:05:32;5.23;;;4.10;;
5499;SDS011;2772;42.700;23.304;2023-04-01T15:08:13;13.03;;;5.80;;
5499;SDS011;2772;42.700;23.304;2023-04-01T15:16:41;6.00;;;4.67;;
5499;SDS011;2772;42.700;23.304;2023-04-01T15:19:18;7.33;;;4.93;;
5499;SDS011;2772;42.700;23.304;2023-04-01T15:21:59;6.80;;;4.53;;
5499;SDS011;2772;42.700;23.304;2023-04-01T15:24:44;8.30;;;5.30;;
5499;SDS011;2772;42.700;23.304;2023-04-01T15:27:16;7.33;;;5.50;;
5499;SDS011;2772;42.700;23.304;2023-04-01T15:29:59;6.80;;;4.23;;
5499;SDS011;2772;42.700;23.304;2023-04-01T15:32:37;9.27;;;5.57;;
5499;SDS011;2772;42.700;23.304;2023-04-01T15:35:18;6.00;;;4.47;;
5499;SDS011;2772;42.700;23.304;2023-04-01T15:37:54;6.67;;;4.03;;
5499;SDS011;2772;42.700;23.304;2023-04-01T15:40:23;11.17;;;5.20;;
5499;SDS011;2772;42.700;23.304;2023-04-01T15:42:59;9.23;;;3.20;;
5499;SDS011;2772;42.700;23.304;2023-04-01T15:45:41;6.03;;;4.83;;
5499;SDS011;2772;42.700;23.304;2023-04-01T15:48:24;6.70;;;4.60;;
5499;SDS011;2772;42.700;23.304;2023-04-01T15:51:06;3.67;;;1.13;;
5499;SDS011;2772;42.700;23.304;2023-04-01T15:54:03;2.90;;;1.33;;
5499;SDS011;2772;42.700;23.304;2023-04-01T15:56:52;1.87;;;1.77;;
5499;SDS011;2772;42.700;23.304;2023-04-01T15:59:33;3.27;;;2.97;;
5499;SDS011;2772;42.700;23.304;2023-04-01T16:02:16;6.33;;;4.90;;
5499;SDS011;2772;42.700;23.304;2023-04-01T16:04:49;3.30;;;3.00;;
5499;SDS011;2772;42.700;23.304;2023-04-01T16:07:28;4.57;;;3.97;;
5499;SDS011;2772;42.700;23.304;2023-04-01T16:10:20;3.20;;;2.93;;
5499;SDS011;2772;42.700;23.304;2023-04-01T16:13:00;9.73;;;3.27;;
5499;SDS011;2772;42.700;23.304;2023-04-01T16:15:39;3.70;;;2.67;;
5499;SDS011;2772;42.700;23.304;2023-04-01T16:18:24;3.83;;;3.50;;
5499;SDS011;2772;42.700;23.304;2023-04-01T16:21:01;3.93;;;3.63;;
5499;SDS011;2772;42.700;23.304;2023-04-01T16:23:34;2.93;;;2.63;;
5499;SDS011;2772;42.700;23.304;2023-04-01T16:26:05;5.03;;;3.87;;
5499;SDS011;2772;42.700;23.304;2023-04-01T16:28:37;3.33;;;3.07;;
5499;SDS011;2772;42.700;23.304;2023-04-01T16:31:16;3.73;;;3.43;;
5499;SDS011;2772;42.700;23.304;2023-04-01T16:33:55;3.13;;;2.83;;
5499;SDS011;2772;42.700;23.304;2023-04-01T16:36:27;3.73;;;3.53;;
5499;SDS011;2772;42.700;23.304;2023-04-01T16:39:25;7.23;;;6.00;;
5499;SDS011;2772;42.700;23.304;2023-04-01T16:42:06;3.60;;;3.40;;
5499;SDS011;2772;42.700;23.304;2023-04-01T16:44:47;3.70;;;3.40;;
5499;SDS011;2772;42.700;23.304;2023-04-01T16:47:20;4.10;;;3.80;;
5499;SDS011;2772;42.700;23.304;2023-04-01T16:49:56;4.00;;;3.70;;
5499;SDS011;2772;42.700;23.304;2023-04-01T16:52:35;2.90;;;2.70;;
5499;SDS011;2772;42.700;23.304;2023-04-01T16:55:15;2.80;;;2.70;;
5499;SDS011;2772;42.700;23.304;2023-04-01T16:57:47;3.13;;;2.93;;
5499;SDS011;2772;42.700;23.304;2023-04-01T17:00:22;3.93;;;2.53;;
5499;SDS011;2772;42.700;23.304;2023-04-01T17:02:54;2.93;;;2.73;;
5499;SDS011;2772;42.700;23.304;2023-04-01T17:05:39;3.50;;;3.20;;
5499;SDS011;2772;42.700;23.304;2023-04-01T17:08:15;4.70;;;2.30;;
5499;SDS011;2772;42.700;23.304;2023-04-01T17:10:50;2.60;;;2.40;;
5499;SDS011;2772;42.700;23.304;2023-04-01T17:13:31;3.20;;;2.83;;